Kendall-Tamiami Executive Airport


Codes: KTMB/TMB
Name: Kendall-Tamiami Executive Airport
City: Miami
Country: United States
Elevation: 8 ft.
Website:
Wikipedia:

Photos at Kendall-Tamiami Executive Airport


   Photos courtesy of SpottingLog. You can add your own sightings and photos by signing up for a free trial today.



No photos found.

Weather at Kendall-Tamiami Executive Airport


Time (UTC)DescriptionTempratureWindCloud coverageVisibilityPressureHumidity
18-Apr-2024 00:00Scattered Clouds26°C11 mph, E34%10000m1018hPa61%
18-Apr-2024 03:00Few Clouds24°C9 mph, E18%10000m1019hPa64%
18-Apr-2024 06:00Clear Sky22°C9 mph, E7%10000m1018hPa70%
18-Apr-2024 09:00Scattered Clouds22°C7 mph, E36%10000m1017hPa71%
18-Apr-2024 12:00Scattered Clouds23°C9 mph, E40%10000m1019hPa68%
18-Apr-2024 15:00Few Clouds26°C11 mph, E12%10000m1020hPa51%
18-Apr-2024 18:00Clear Sky28°C13 mph, E9%10000m1019hPa44%
18-Apr-2024 21:00Broken Clouds27°C11 mph, E58%10000m1017hPa49%
19-Apr-2024 00:00Broken Clouds24°C7 mph, E80%10000m1018hPa65%
19-Apr-2024 03:00Broken Clouds23°C9 mph, E78%10000m1019hPa73%
19-Apr-2024 06:00Broken Clouds23°C9 mph, E58%10000m1017hPa78%
19-Apr-2024 09:00Scattered Clouds22°C4 mph, E46%10000m1017hPa77%
19-Apr-2024 12:00Scattered Clouds23°C4 mph, E46%10000m1018hPa69%
19-Apr-2024 15:00Scattered Clouds28°C9 mph, E37%10000m1019hPa48%
19-Apr-2024 18:00Few Clouds30°C11 mph, SE24%10000m1018hPa38%
19-Apr-2024 21:00Clear Sky29°C11 mph, E8%10000m1016hPa41%
20-Apr-2024 00:00Few Clouds24°C9 mph, SE17%10000m1018hPa62%
20-Apr-2024 03:00Clear Sky23°C4 mph, SE0%10000m1019hPa67%
20-Apr-2024 06:00Clear Sky22°C2 mph, SE2%10000m1018hPa76%
20-Apr-2024 09:00Clear Sky22°C4 mph, SE0%10000m1017hPa76%
20-Apr-2024 12:00Clear Sky24°C2 mph, SE0%10000m1018hPa72%
20-Apr-2024 15:00Clear Sky28°C9 mph, SE0%10000m1019hPa50%
20-Apr-2024 18:00Clear Sky30°C13 mph, SE0%10000m1018hPa41%
20-Apr-2024 21:00Clear Sky29°C13 mph, SE1%10000m1016hPa42%
21-Apr-2024 00:00Clear Sky25°C7 mph, SE2%10000m1017hPa57%
21-Apr-2024 03:00Clear Sky23°C7 mph, SE2%10000m1018hPa67%
21-Apr-2024 06:00Clear Sky23°C4 mph, SE2%10000m1017hPa74%
21-Apr-2024 09:00Clear Sky22°C4 mph, SE2%10000m1016hPa76%
21-Apr-2024 12:00Clear Sky24°C7 mph, SE1%10000m1017hPa71%
21-Apr-2024 15:00Clear Sky28°C9 mph, SE0%10000m1018hPa50%
21-Apr-2024 18:00Clear Sky30°C13 mph, SE0%10000m1016hPa41%
21-Apr-2024 21:00Clear Sky29°C11 mph, SE0%10000m1015hPa43%
22-Apr-2024 00:00Few Clouds25°C11 mph, SE15%10000m1015hPa60%
22-Apr-2024 03:00Clear Sky24°C7 mph, SE0%10000m1016hPa70%
22-Apr-2024 06:00Clear Sky23°C7 mph, SE1%10000m1015hPa76%
22-Apr-2024 09:00Clear Sky22°C4 mph, S2%10000m1014hPa81%
22-Apr-2024 12:00Clear Sky24°C7 mph, SE5%10000m1015hPa76%
22-Apr-2024 15:00Scattered Clouds29°C9 mph, S31%10000m1015hPa49%
22-Apr-2024 18:00Scattered Clouds32°C11 mph, S38%10000m1013hPa38%
22-Apr-2024 21:00Clear Sky32°C16 mph, S4%10000m1012hPa37%